createdAt,value
2022-11-05T00:01:29.415Z,98013.52
2022-11-05T00:04:17.272Z,98012.30
2022-11-05T00:07:13.775Z,98015.57
2022-11-05T00:09:44.438Z,98019.17
2022-11-05T00:12:33.643Z,98017.62
2022-11-05T00:15:21.996Z,98019.32
2022-11-05T00:17:52.545Z,98025.14
2022-11-05T00:20:23.031Z,98030.48
2022-11-05T00:23:11.010Z,98033.05
2022-11-05T00:25:41.670Z,98032.53
2022-11-05T00:28:12.133Z,98032.71
2022-11-05T00:30:43.954Z,98031.83
2022-11-05T00:33:14.831Z,98031.13
2022-11-05T00:35:45.447Z,98032.47
2022-11-05T00:38:15.953Z,98029.86
2022-11-05T00:40:47.032Z,98032.09
2022-11-05T00:43:35.015Z,98036.55
2022-11-05T00:46:05.611Z,98040.86
2022-11-05T00:48:53.307Z,98042.76
2022-11-05T00:51:23.812Z,98044.98
2022-11-05T00:53:54.723Z,98050.14
2022-11-05T00:56:25.232Z,98052.00
2022-11-05T00:58:56.381Z,98055.60
2022-11-05T01:01:27.081Z,98060.58
2022-11-05T01:03:57.578Z,98062.09
2022-11-05T01:06:27.974Z,98063.77
2022-11-05T01:08:58.410Z,98068.26
2022-11-05T01:11:35.161Z,98072.40
2022-11-05T01:14:07.717Z,98076.52
2022-11-05T01:16:38.492Z,98079.95
2022-11-05T01:19:11.162Z,98074.92
2022-11-05T01:21:41.579Z,98073.36
2022-11-05T01:24:12.769Z,98076.48
2022-11-05T01:26:43.295Z,98075.83
2022-11-05T01:29:14.383Z,98073.94
2022-11-05T01:31:44.919Z,98077.26
2022-11-05T01:34:15.378Z,98075.22
2022-11-05T01:36:45.866Z,98076.24
2022-11-05T01:39:16.658Z,98078.32
2022-11-05T01:41:47.481Z,98085.26
2022-11-05T01:44:53.014Z,98087.69
2022-11-05T01:47:29.447Z,98088.42
2022-11-05T01:50:03.047Z,98093.25
2022-11-05T01:52:35.271Z,98094.95
2022-11-05T01:55:07.075Z,98097.17
2022-11-05T01:57:37.584Z,98098.00
2022-11-05T02:00:10.320Z,98099.19
2022-11-05T02:02:43.833Z,98100.75
2022-11-05T02:05:15.150Z,98102.65
2022-11-05T02:07:46.509Z,98102.98
2022-11-05T02:10:19.169Z,98104.50
2022-11-05T02:12:50.096Z,98103.79
2022-11-05T02:15:29.278Z,98107.10
2022-11-05T02:18:10.790Z,98107.64
2022-11-05T02:20:48.023Z,98107.16
2022-11-05T02:23:51.577Z,98109.07
2022-11-05T02:26:52.968Z,98107.02
2022-11-05T02:29:53.243Z,98107.73
2022-11-05T02:32:36.244Z,98107.23
2022-11-05T02:35:15.904Z,98106.38
2022-11-05T02:37:50.650Z,98105.23
2022-11-05T02:40:26.098Z,98110.41
2022-11-05T02:43:02.492Z,98118.87
2022-11-05T02:45:41.598Z,98122.66
2022-11-05T02:48:18.056Z,98129.21
2022-11-05T02:50:54.203Z,98136.44
2022-11-05T02:53:34.038Z,98140.91
2022-11-05T02:56:06.862Z,98139.55
2022-11-05T02:58:37.509Z,98145.77
2022-11-05T03:01:08.425Z,98140.44
2022-11-05T03:03:40.852Z,98139.39
2022-11-05T03:06:49.679Z,98138.02
2022-11-05T03:09:59.255Z,98133.19
2022-11-05T03:12:35.475Z,98136.31
2022-11-05T03:15:13.859Z,98134.61
2022-11-05T03:17:48.897Z,98134.80
2022-11-05T03:20:22.879Z,98138.78
2022-11-05T03:22:55.172Z,98139.67
2022-11-05T03:25:26.335Z,98147.29
2022-11-05T03:28:02.000Z,98153.49
2022-11-05T03:30:33.842Z,98157.99
2022-11-05T03:33:08.321Z,98161.83
2022-11-05T03:35:41.393Z,98164.09
2022-11-05T03:38:15.501Z,98168.23
2022-11-05T03:40:48.481Z,98168.23
2022-11-05T03:43:17.469Z,98175.83
2022-11-05T03:45:53.202Z,98178.44
2022-11-05T03:48:25.446Z,98186.21
2022-11-05T03:51:00.614Z,98188.11
2022-11-05T03:53:33.358Z,98182.29
2022-11-05T03:56:03.490Z,98183.34
2022-11-05T03:58:34.119Z,98187.49
2022-11-05T04:01:05.356Z,98186.14
2022-11-05T04:03:37.259Z,98187.88
2022-11-05T04:06:26.903Z,98188.42
2022-11-05T04:09:14.638Z,98193.44
2022-11-05T04:12:20.563Z,98193.78
2022-11-05T04:14:51.017Z,98194.64
2022-11-05T04:17:21.562Z,98190.68
2022-11-05T04:20:09.800Z,98194.84
2022-11-05T04:22:57.817Z,98200.35
2022-11-05T04:25:28.343Z,98201.27
2022-11-05T04:28:01.430Z,98199.23
2022-11-05T04:30:31.933Z,98202.88
2022-11-05T04:33:08.057Z,98209.80
2022-11-05T04:35:40.410Z,98211.89
2022-11-05T04:38:13.105Z,98216.39
2022-11-05T04:40:44.080Z,98221.95
2022-11-05T04:43:17.348Z,98225.77
2022-11-05T04:45:48.187Z,98226.31
2022-11-05T04:48:18.727Z,98226.52
2022-11-05T04:50:49.255Z,98229.98
2022-11-05T04:53:19.784Z,98233.27
2022-11-05T04:55:50.156Z,98235.88
2022-11-05T04:58:20.667Z,98236.08
2022-11-05T05:00:53.099Z,98236.63
2022-11-05T05:03:23.760Z,98237.14
2022-11-05T05:05:56.282Z,98236.45
2022-11-05T05:08:28.736Z,98242.66
2022-11-05T05:11:03.922Z,98240.45
2022-11-05T05:13:34.656Z,98246.48
2022-11-05T05:16:09.156Z,98250.15
2022-11-05T05:18:45.068Z,98252.41
2022-11-05T05:21:34.596Z,98250.00
2022-11-05T05:24:05.555Z,98257.57
2022-11-05T05:26:36.048Z,98256.38
2022-11-05T05:29:07.135Z,98258.10
2022-11-05T05:31:37.801Z,98258.60
2022-11-05T05:34:09.018Z,98260.46
2022-11-05T05:36:39.412Z,98257.71
2022-11-05T05:39:10.816Z,98255.64
2022-11-05T05:41:44.219Z,98253.44
2022-11-05T05:44:15.115Z,98252.08
2022-11-05T05:46:45.531Z,98254.31
2022-11-05T05:49:16.127Z,98259.48
2022-11-05T05:51:46.574Z,98260.52
2022-11-05T05:54:17.026Z,98260.86
2022-11-05T05:56:47.884Z,98263.27
2022-11-05T05:59:18.334Z,98266.37
2022-11-05T06:01:48.954Z,98271.02
2022-11-05T06:04:19.533Z,98276.00
2022-11-05T06:06:49.958Z,98282.73
2022-11-05T06:09:20.393Z,98288.58
2022-11-05T06:11:50.951Z,98290.09
2022-11-05T06:14:21.473Z,98288.86
2022-11-05T06:16:52.059Z,98291.95
2022-11-05T06:19:22.545Z,98294.88
2022-11-05T06:21:52.947Z,98296.56
2022-11-05T06:24:23.336Z,98301.02
2022-11-05T06:26:53.810Z,98303.41
2022-11-05T06:29:24.360Z,98306.31
2022-11-05T06:31:55.050Z,98311.63
2022-11-05T06:34:25.561Z,98316.79
2022-11-05T06:36:56.024Z,98320.56
2022-11-05T06:39:26.498Z,98322.77
2022-11-05T06:42:17.049Z,98327.41
2022-11-05T06:44:47.650Z,98333.08
2022-11-05T06:47:18.291Z,98341.83
2022-11-05T06:49:49.184Z,98348.00
2022-11-05T06:52:19.664Z,98352.27
2022-11-05T06:54:50.106Z,98356.39
2022-11-05T06:57:20.939Z,98361.52
2022-11-05T06:59:55.712Z,98364.73
2022-11-05T07:02:29.236Z,98369.17
2022-11-05T07:05:02.034Z,98373.27
2022-11-05T07:07:32.467Z,98380.96
2022-11-05T07:10:03.128Z,98379.30
2022-11-05T07:12:33.715Z,98383.23
2022-11-05T07:15:04.655Z,98382.13
2022-11-05T07:17:35.051Z,98383.84
2022-11-05T07:20:10.684Z,98387.73
2022-11-05T07:22:41.155Z,98386.77
2022-11-05T07:25:12.315Z,98386.82
2022-11-05T07:27:45.112Z,98394.83
2022-11-05T07:30:15.993Z,98403.51
2022-11-05T07:32:46.655Z,98407.81
2022-11-05T07:35:17.225Z,98409.10
2022-11-05T07:37:49.470Z,98413.79
2022-11-05T07:40:21.287Z,98414.78
2022-11-05T07:42:52.826Z,98414.59
2022-11-05T07:45:23.841Z,98413.98
2022-11-05T07:47:55.937Z,98417.34
2022-11-05T07:50:28.365Z,98420.83
2022-11-05T07:53:03.570Z,98427.48
2022-11-05T07:55:34.145Z,98429.54
2022-11-05T07:58:05.126Z,98429.38
2022-11-05T08:00:35.990Z,98429.32
2022-11-05T08:03:08.844Z,98430.41
2022-11-05T08:05:40.957Z,98431.13
2022-11-05T08:08:12.174Z,98432.37
2022-11-05T08:10:43.054Z,98435.32
2022-11-05T08:13:13.986Z,98441.12
2022-11-05T08:15:45.011Z,98444.17
2022-11-05T08:18:17.030Z,98449.20
2022-11-05T08:20:49.149Z,98452.89
2022-11-05T08:23:19.579Z,98451.58
2022-11-05T08:25:50.071Z,98456.83
2022-11-05T08:28:21.793Z,98458.98
2022-11-05T08:30:53.295Z,98464.81
2022-11-05T08:33:24.819Z,98461.81
2022-11-05T08:35:55.188Z,98463.91
2022-11-05T08:38:25.667Z,98466.50
2022-11-05T08:41:00.456Z,98466.59
2022-11-05T08:43:31.067Z,98465.36
2022-11-05T08:46:03.756Z,98475.30
2022-11-05T08:48:34.160Z,98481.33
2022-11-05T08:51:04.616Z,98488.17
2022-11-05T08:53:34.964Z,98488.64
2022-11-05T08:56:05.578Z,98490.40
2022-11-05T08:58:36.180Z,98489.55
2022-11-05T09:01:07.615Z,98492.45
2022-11-05T09:03:38.312Z,98490.30
2022-11-05T09:06:09.382Z,98487.86
2022-11-05T09:08:39.729Z,98486.15
2022-11-05T09:11:10.286Z,98483.46
2022-11-05T09:13:40.718Z,98489.85
2022-11-05T09:16:19.707Z,98488.98
2022-11-05T09:18:50.348Z,98487.97
2022-11-05T09:21:21.426Z,98492.25
2022-11-05T09:23:51.812Z,98490.04
2022-11-05T09:26:22.511Z,98488.21
2022-11-05T09:28:53.697Z,98489.89
2022-11-05T09:31:24.630Z,98488.14
2022-11-05T09:33:55.077Z,98488.98
2022-11-05T09:36:25.535Z,98486.21
2022-11-05T09:38:55.920Z,98484.52
2022-11-05T09:41:31.847Z,98488.02
2022-11-05T09:44:05.630Z,98490.83
2022-11-05T09:46:42.405Z,98489.56
2022-11-05T09:49:18.230Z,98495.91
2022-11-05T09:51:48.885Z,98497.78
2022-11-05T09:54:19.437Z,98502.79
2022-11-05T09:56:50.015Z,98508.77
2022-11-05T09:59:25.474Z,98509.85
2022-11-05T10:02:04.165Z,98507.35
2022-11-05T10:04:35.561Z,98506.25
2022-11-05T10:07:07.848Z,98503.23
2022-11-05T10:09:43.009Z,98502.83
2022-11-05T10:12:18.327Z,98514.05
2022-11-05T10:14:53.108Z,98515.41
2022-11-05T10:17:25.424Z,98514.82
2022-11-05T10:19:59.870Z,98517.75
2022-11-05T10:22:30.736Z,98517.29
2022-11-05T10:25:02.271Z,98514.48
2022-11-05T10:27:34.953Z,98512.20
2022-11-05T10:30:06.305Z,98514.52
2022-11-05T10:32:39.195Z,98512.66
2022-11-05T10:35:13.520Z,98510.55
2022-11-05T10:37:43.938Z,98510.50
2022-11-05T10:40:19.714Z,98514.20
2022-11-05T10:42:57.929Z,98513.91
2022-11-05T10:45:36.476Z,98511.58
2022-11-05T10:48:22.311Z,98509.73
2022-11-05T10:50:53.040Z,98511.06
2022-11-05T10:53:25.695Z,98512.91
2022-11-05T10:55:58.378Z,98514.19
2022-11-05T10:58:31.568Z,98515.20
2022-11-05T11:01:08.372Z,98522.91
2022-11-05T11:03:42.542Z,98525.09
2022-11-05T11:06:24.136Z,98531.29
2022-11-05T11:08:56.772Z,98532.15
2022-11-05T11:11:33.931Z,98530.14
2022-11-05T11:14:07.701Z,98530.94
2022-11-05T11:16:40.368Z,98527.38
2022-11-05T11:19:23.101Z,98529.91
2022-11-05T11:22:18.547Z,98526.46
2022-11-05T11:24:50.510Z,98523.60
2022-11-05T11:27:25.210Z,98518.36
2022-11-05T11:30:00.672Z,98517.88
2022-11-05T11:32:36.366Z,98514.48
2022-11-05T11:35:09.012Z,98510.65
2022-11-05T11:37:42.197Z,98509.48
2022-11-05T11:40:18.206Z,98508.73
2022-11-05T11:42:50.367Z,98500.88
2022-11-05T11:45:20.810Z,98501.77
2022-11-05T11:47:51.857Z,98500.63
2022-11-05T11:50:41.434Z,98495.65
2022-11-05T11:53:37.535Z,98499.26
2022-11-05T11:56:18.763Z,98500.16
2022-11-05T11:58:51.714Z,98498.70
2022-11-05T12:02:04.606Z,98497.73
2022-11-05T12:04:52.785Z,98500.36
2022-11-05T12:07:31.930Z,98507.45
2022-11-05T12:10:14.869Z,98506.55
2022-11-05T12:12:55.757Z,98512.29
2022-11-05T12:15:35.481Z,98509.45
2022-11-05T12:18:07.193Z,98513.17
2022-11-05T12:26:43.981Z,98510.38
2022-11-05T12:29:30.109Z,98510.73
2022-11-05T12:32:21.481Z,98509.60
2022-11-05T12:34:58.004Z,98512.38
2022-11-05T12:37:33.369Z,98513.64
2022-11-05T12:40:17.345Z,98511.80
2022-11-05T12:43:06.429Z,98515.42
2022-11-05T12:45:48.320Z,98521.95
2022-11-05T12:48:37.028Z,98525.21
2022-11-05T12:51:17.426Z,98526.59
2022-11-05T12:53:55.029Z,98523.38
2022-11-05T12:56:32.049Z,98522.90
2022-11-05T13:05:03.112Z,98533.40
2022-11-05T13:08:07.647Z,98540.52
2022-11-05T13:10:41.632Z,98536.89
2022-11-05T13:13:17.290Z,98538.96
2022-11-05T13:15:50.642Z,98540.66
2022-11-05T13:18:25.213Z,98538.14
2022-11-05T13:20:57.372Z,98534.48
2022-11-05T13:23:36.666Z,98533.58
2022-11-05T13:26:14.473Z,98535.10
2022-11-05T13:28:52.304Z,98540.15
2022-11-05T13:31:24.886Z,98535.02
2022-11-05T13:33:56.483Z,98534.56
2022-11-05T13:36:48.479Z,98534.27
2022-11-05T13:39:23.244Z,98527.98
2022-11-05T13:42:19.398Z,98525.39
2022-11-05T13:45:16.102Z,98525.23
2022-11-05T13:48:02.844Z,98527.98
2022-11-05T13:50:57.566Z,98527.73
2022-11-05T13:53:51.759Z,98528.34
2022-11-05T13:56:34.550Z,98526.17
2022-11-05T13:59:34.965Z,98524.73
2022-11-05T14:02:12.059Z,98530.70
2022-11-05T14:04:46.966Z,98533.11
2022-11-05T14:07:21.048Z,98536.75
2022-11-05T14:09:56.510Z,98536.91
2022-11-05T14:12:29.674Z,98535.88
2022-11-05T14:15:08.537Z,98532.57
2022-11-05T14:17:57.007Z,98534.81
2022-11-05T14:20:45.907Z,98533.59
2022-11-05T14:23:54.430Z,98533.21
2022-11-05T14:26:27.719Z,98530.52
2022-11-05T14:29:29.032Z,98536.50
2022-11-05T14:32:09.773Z,98538.30
2022-11-05T14:34:46.977Z,98531.79
2022-11-05T14:37:24.572Z,98528.19
2022-11-05T14:39:56.186Z,98526.47
2022-11-05T14:42:52.448Z,98532.34
2022-11-05T14:45:29.913Z,98538.52
2022-11-05T14:48:01.530Z,98538.61
2022-11-05T14:50:38.806Z,98540.95
2022-11-05T14:53:13.993Z,98543.44
2022-11-05T14:55:45.917Z,98547.86
2022-11-05T14:58:31.480Z,98548.63
2022-11-05T15:01:04.098Z,98548.52
2022-11-05T15:03:47.185Z,98545.00
2022-11-05T15:06:42.937Z,98545.70
2022-11-05T15:09:28.375Z,98547.61
2022-11-05T15:12:11.281Z,98544.89
2022-11-05T15:14:50.455Z,98542.36
2022-11-05T15:17:29.813Z,98539.52
2022-11-05T15:20:08.374Z,98535.48
2022-11-05T15:22:40.858Z,98542.69
2022-11-05T15:25:18.875Z,98541.59
2022-11-05T15:28:04.830Z,98543.71
2022-11-05T15:30:35.421Z,98548.75
2022-11-05T15:33:19.939Z,98549.14
2022-11-05T15:35:50.414Z,98546.91
2022-11-05T15:38:30.861Z,98543.47
2022-11-05T15:41:06.211Z,98546.44
2022-11-05T15:43:36.841Z,98546.13
2022-11-05T15:46:14.215Z,98549.43
2022-11-05T15:48:49.723Z,98553.59
2022-11-05T15:51:20.982Z,98553.80
2022-11-05T15:56:52.644Z,98546.19
2022-11-05T15:59:24.612Z,98549.91
2022-11-05T16:01:56.643Z,98551.72
2022-11-05T16:04:28.648Z,98551.82
2022-11-05T16:07:01.007Z,98553.66
2022-11-05T16:09:33.353Z,98555.35
2022-11-05T16:12:25.171Z,98557.07
2022-11-05T16:15:22.261Z,98558.95
2022-11-05T16:17:55.721Z,98556.50
2022-11-05T16:20:32.572Z,98558.66
2022-11-05T16:23:04.422Z,98555.11
2022-11-05T16:25:38.920Z,98554.10
2022-11-05T16:28:23.116Z,98559.30
2022-11-05T16:30:58.525Z,98564.85
2022-11-05T16:33:33.338Z,98566.10
2022-11-05T16:36:03.907Z,98564.75
2022-11-05T16:38:34.467Z,98565.28
2022-11-05T16:41:15.626Z,98572.19
2022-11-05T16:43:54.039Z,98578.92
2022-11-05T16:46:25.833Z,98582.39
2022-11-05T16:48:56.442Z,98586.88
2022-11-05T16:51:29.612Z,98588.98
2022-11-05T16:54:00.141Z,98593.98
2022-11-05T16:56:30.703Z,98600.55
2022-11-05T16:59:06.844Z,98609.18
2022-11-05T17:01:39.885Z,98615.73
2022-11-05T17:04:16.520Z,98621.40
2022-11-05T17:06:51.504Z,98619.16
2022-11-05T17:09:23.174Z,98621.92
2022-11-05T17:12:00.678Z,98624.17
2022-11-05T17:14:34.015Z,98624.35
2022-11-05T17:17:04.775Z,98623.31
2022-11-05T17:19:35.369Z,98620.05
2022-11-05T17:22:09.188Z,98618.16
2022-11-05T17:24:42.053Z,98622.27
2022-11-05T17:27:12.525Z,98623.48
2022-11-05T17:29:45.648Z,98623.83
2022-11-05T17:32:18.592Z,98623.64
2022-11-05T17:34:49.217Z,98626.39
2022-11-05T17:37:19.750Z,98626.21
2022-11-05T17:40:01.549Z,98625.20
2022-11-05T17:42:35.070Z,98627.41
2022-11-05T17:45:09.219Z,98631.71
2022-11-05T17:47:40.478Z,98636.19
2022-11-05T17:50:15.328Z,98634.64
2022-11-05T17:52:53.826Z,98630.17
2022-11-05T17:55:28.322Z,98629.82
2022-11-05T17:57:58.956Z,98625.88
2022-11-05T18:00:29.520Z,98629.13
2022-11-05T18:03:02.640Z,98635.32
2022-11-05T18:05:34.521Z,98629.99
2022-11-05T18:08:05.453Z,98626.91
2022-11-05T18:10:38.703Z,98626.39
2022-11-05T18:13:07.797Z,98636.70
2022-11-05T18:15:41.013Z,98643.92
2022-11-05T18:18:11.727Z,98649.60
2022-11-05T18:20:43.100Z,98654.26
2022-11-05T18:23:14.250Z,98654.61
2022-11-05T18:25:45.074Z,98658.91
2022-11-05T18:28:15.833Z,98665.80
2022-11-05T18:30:46.259Z,98663.23
2022-11-05T18:33:16.812Z,98662.88
2022-11-05T18:35:47.630Z,98668.04
2022-11-05T18:38:18.020Z,98665.28
2022-11-05T18:40:48.887Z,98664.08
2022-11-05T18:43:19.472Z,98666.32
2022-11-05T18:45:57.096Z,98666.66
2022-11-05T18:48:27.788Z,98670.10
2022-11-05T18:51:06.056Z,98667.33
2022-11-05T18:53:36.508Z,98672.67
2022-11-05T18:56:10.812Z,98675.43
2022-11-05T18:58:42.738Z,98676.45
2022-11-05T19:01:24.084Z,98677.83
2022-11-05T19:03:58.180Z,98680.23
2022-11-05T19:06:28.897Z,98675.41
2022-11-05T19:09:02.494Z,98675.59
2022-11-05T19:11:38.045Z,98677.64
2022-11-05T19:14:08.932Z,98679.02
2022-11-05T19:16:39.617Z,98677.13
2022-11-05T19:22:59.603Z,98668.01
2022-11-05T19:25:32.434Z,98664.75
2022-11-05T19:28:11.943Z,98672.48
2022-11-05T19:30:51.185Z,98668.89
2022-11-05T19:33:26.153Z,98674.05
2022-11-05T19:35:56.684Z,98678.68
2022-11-05T19:38:38.199Z,98675.23
2022-11-05T19:41:10.051Z,98675.08
2022-11-05T19:43:43.819Z,98673.00
2022-11-05T19:46:16.375Z,98668.35
2022-11-05T19:48:47.229Z,98668.87
2022-11-05T19:51:22.730Z,98670.77
2022-11-05T19:53:53.566Z,98670.41
2022-11-05T19:56:31.156Z,98672.30
2022-11-05T19:59:09.347Z,98675.92
2022-11-05T20:01:50.420Z,98671.80
2022-11-05T20:04:23.491Z,98668.70
2022-11-05T20:06:54.477Z,98671.80
2022-11-05T20:09:28.173Z,98669.55
2022-11-05T20:11:59.100Z,98672.98
2022-11-05T20:14:29.906Z,98671.43
2022-11-05T20:17:04.491Z,98673.14
2022-11-05T20:22:43.039Z,98671.23
2022-11-05T20:25:24.254Z,98676.21
2022-11-05T20:27:59.585Z,98676.03
2022-11-05T20:30:33.751Z,98677.05
2022-11-05T20:33:06.853Z,98681.70
2022-11-05T20:35:50.196Z,98678.61
2022-11-05T20:38:28.527Z,98682.91
2022-11-05T20:41:01.619Z,98686.17
2022-11-05T20:43:51.676Z,98685.85
2022-11-05T20:46:28.465Z,98686.70
2022-11-05T20:49:06.776Z,98687.23
2022-11-05T20:52:19.031Z,98686.87
2022-11-05T20:54:55.836Z,98687.74
2022-11-05T20:57:33.947Z,98692.40
2022-11-05T21:00:07.278Z,98693.77
2022-11-05T21:02:41.699Z,98691.55
2022-11-05T21:05:12.615Z,98690.37
2022-11-05T21:07:43.083Z,98691.41
2022-11-05T21:10:14.743Z,98691.06
2022-11-05T21:12:48.732Z,98689.17
2022-11-05T21:15:23.136Z,98682.63
2022-11-05T21:17:54.366Z,98683.16
2022-11-05T21:20:24.931Z,98682.64
2022-11-05T21:22:56.229Z,98682.98
2022-11-05T21:25:28.202Z,98683.32
2022-11-05T21:28:01.418Z,98681.60
2022-11-05T21:30:31.964Z,98684.70
2022-11-05T21:33:03.070Z,98685.88
2022-11-05T21:35:33.898Z,98679.34
2022-11-05T21:38:04.468Z,98675.55
2022-11-05T21:40:35.498Z,98679.34
2022-11-05T21:43:06.261Z,98680.36
2022-11-05T21:45:42.977Z,98679.51
2022-11-05T21:48:18.261Z,98679.15
2022-11-05T21:51:10.637Z,98683.96
2022-11-05T21:53:58.955Z,98687.39
2022-11-05T21:57:09.675Z,98687.22
2022-11-05T21:59:51.895Z,98683.42
2022-11-05T22:02:25.266Z,98683.27
2022-11-05T22:04:57.178Z,98679.46
2022-11-05T22:07:30.141Z,98683.42
2022-11-05T22:09:59.071Z,98685.48
2022-11-05T22:12:29.777Z,98688.56
2022-11-05T22:15:00.317Z,98692.34
2022-11-05T22:17:31.416Z,98694.41
2022-11-05T22:20:01.861Z,98694.59
2022-11-05T22:22:32.505Z,98698.21
2022-11-05T22:25:05.772Z,98694.77
2022-11-05T22:27:36.802Z,98691.16
2022-11-05T22:30:11.461Z,98687.20
2022-11-05T22:32:42.185Z,98683.23
2022-11-05T22:35:16.084Z,98680.81
2022-11-05T22:37:46.773Z,98682.02
2022-11-05T22:40:19.006Z,98681.67
2022-11-05T22:42:52.196Z,98689.23
2022-11-05T22:45:22.647Z,98690.61
2022-11-05T22:47:53.308Z,98686.31
2022-11-05T22:50:24.351Z,98685.09
2022-11-05T22:53:00.462Z,98681.84
2022-11-05T22:55:34.282Z,98684.23
2022-11-05T22:58:06.034Z,98684.92
2022-11-05T23:00:41.268Z,98682.84
2022-11-05T23:03:13.428Z,98685.57
2022-11-05T23:05:47.418Z,98686.77
2022-11-05T23:08:36.591Z,98687.30
2022-11-05T23:11:30.002Z,98684.73
2022-11-05T23:14:02.195Z,98678.02
2022-11-05T23:16:51.803Z,98675.45
2022-11-05T23:19:41.266Z,98671.15
2022-11-05T23:22:33.446Z,98668.74
2022-11-05T23:25:05.993Z,98668.05
2022-11-05T23:27:39.331Z,98663.60
2022-11-05T23:30:15.482Z,98665.67
2022-11-05T23:32:48.212Z,98664.45
2022-11-05T23:35:41.214Z,98660.70
2022-11-05T23:38:33.252Z,98661.72
2022-11-05T23:41:22.840Z,98665.33
2022-11-05T23:44:13.369Z,98667.40
2022-11-05T23:47:02.846Z,98661.55
2022-11-05T23:49:35.328Z,98660.02
2022-11-05T23:52:09.277Z,98651.27
